Time;durP1;ratioP1;P1;durP2;ratioP2;P2;SDS_P1;SDS_P2;PMS_P1;PMS_P2;Temp;Humidity;BMP_temperature;BMP_pressure;BME280_temperature;BME280_humidity;BME280_pressure;Samples;Min_cycle;Max_cycle;Signal;HPM_P1;HPM_P2
2024/02/23 00:01:05;;;;;;;0.10;0.10;;;8.80;99.90;;;;;;4992817;28;20610;-68
2024/02/23 00:03:31;;;;;;;0.47;0.20;;;8.80;99.90;;;;;;5008910;28;20117;-67
2024/02/23 00:05:58;;;;;;;0.10;0.10;;;8.80;99.90;;;;;;5007682;28;20062;-68
2024/02/23 00:08:24;;;;;;;0.13;0.13;;;8.80;99.90;;;;;;5008734;28;20113;-68
2024/02/23 00:10:50;;;;;;;0.10;0.10;;;8.70;99.90;;;;;;5011383;28;20100;-68
2024/02/23 00:13:16;;;;;;;0.03;0.03;;;8.70;99.90;;;;;;5010814;28;20672;-68
2024/02/23 00:15:43;;;;;;;0.10;0.10;;;8.60;99.90;;;;;;5012430;28;20421;-68
2024/02/23 00:18:09;;;;;;;1.35;0.45;;;8.50;99.90;;;;;;5011149;28;20117;-68
2024/02/23 00:20:36;;;;;;;0.05;0.05;;;8.50;99.90;;;;;;5011311;28;20112;-68
2024/02/23 00:23:02;;;;;;;0.10;0.10;;;8.40;99.90;;;;;;5011271;28;20065;-68
2024/02/23 00:25:28;;;;;;;0.52;0.30;;;8.30;99.90;;;;;;5004734;28;20068;-68
2024/02/23 00:27:54;;;;;;;0.90;0.25;;;8.20;99.90;;;;;;5002711;28;20053;-68
2024/02/23 00:30:20;;;;;;;0.98;0.20;;;8.10;99.90;;;;;;5011253;28;20391;-68
2024/02/23 00:32:46;;;;;;;0.00;0.00;;;8.00;99.90;;;;;;5010619;28;20046;-68
2024/02/23 00:35:11;;;;;;;0.35;0.10;;;7.90;99.90;;;;;;5004341;28;20069;-68
2024/02/23 00:37:37;;;;;;;0.65;0.40;;;7.90;99.90;;;;;;5005581;28;20548;-68
2024/02/23 00:40:04;;;;;;;0.00;0.00;;;7.80;99.90;;;;;;5005627;28;20030;-69
2024/02/23 00:42:31;;;;;;;0.10;0.10;;;7.70;99.90;;;;;;5002281;28;20037;-68
2024/02/23 00:44:57;;;;;;;0.40;0.32;;;7.60;99.90;;;;;;4996330;28;20049;-68
2024/02/23 00:47:22;;;;;;;1.95;0.45;;;7.50;99.90;;;;;;5003074;28;20046;-69
2024/02/23 00:49:48;;;;;;;3.03;0.45;;;7.50;99.90;;;;;;4994264;28;20112;-68
2024/02/23 00:52:15;;;;;;;0.30;0.10;;;7.50;99.90;;;;;;5011357;28;20410;-69
2024/02/23 00:54:41;;;;;;;0.88;0.50;;;7.40;99.90;;;;;;5007364;28;20412;-68
2024/02/23 00:57:06;;;;;;;6.07;0.35;;;7.40;99.90;;;;;;4999162;28;20037;-67
2024/02/23 00:59:32;;;;;;;0.65;0.15;;;7.40;99.90;;;;;;5002130;28;20041;-67
2024/02/23 01:01:58;;;;;;;0.10;0.10;;;7.50;99.90;;;;;;5010353;28;20049;-67
2024/02/23 01:04:24;;;;;;;0.63;0.20;;;7.40;99.90;;;;;;5002253;28;20030;-67
2024/02/23 01:06:50;;;;;;;3.30;0.65;;;7.50;99.90;;;;;;5010309;28;20478;-67
2024/02/23 01:09:20;;;;;;;0.90;0.30;;;7.40;99.90;;;;;;4994544;28;20056;-67
2024/02/23 01:11:48;;;;;;;0.03;0.03;;;7.40;99.90;;;;;;5010016;28;20387;-67
2024/02/23 01:14:15;;;;;;;0.10;0.10;;;7.30;99.90;;;;;;5002602;28;20493;-68
2024/02/23 01:16:40;;;;;;;0.22;0.22;;;7.30;99.90;;;;;;5007483;28;20034;-67
2024/02/23 01:19:06;;;;;;;0.80;0.50;;;7.30;99.90;;;;;;4996897;28;20033;-68
2024/02/23 01:21:32;;;;;;;0.10;0.10;;;7.30;99.90;;;;;;5008629;28;20062;-68
2024/02/23 01:23:58;;;;;;;0.10;0.10;;;7.30;99.90;;;;;;5009766;28;20026;-68
2024/02/23 01:26:24;;;;;;;0.57;0.57;;;7.30;99.90;;;;;;5002083;28;20407;-67
2024/02/23 01:28:49;;;;;;;5.03;0.45;;;7.30;99.90;;;;;;5011828;28;20030;-68
2024/02/23 01:31:15;;;;;;;0.47;0.47;;;7.30;99.90;;;;;;5012896;28;20060;-69
2024/02/23 01:33:41;;;;;;;4.85;0.15;;;7.40;99.90;;;;;;5002392;28;20030;-68
2024/02/23 01:36:07;;;;;;;0.32;0.30;;;7.40;99.90;;;;;;4999993;28;20101;-68
2024/02/23 01:38:34;;;;;;;0.00;0.00;;;7.50;99.90;;;;;;5010110;28;20164;-68
2024/02/23 01:41:00;;;;;;;3.63;0.73;;;7.60;99.90;;;;;;5003868;28;20044;-68
2024/02/23 01:43:26;;;;;;;0.10;0.05;;;7.70;99.90;;;;;;5001506;28;20038;-68
2024/02/23 01:45:53;;;;;;;0.10;0.10;;;7.20;99.90;;;;;;5009907;28;20036;-68
2024/02/23 01:48:20;;;;;;;0.00;0.00;;;6.50;99.90;;;;;;5010069;28;20030;-68
2024/02/23 01:50:46;;;;;;;0.10;0.10;;;6.20;99.90;;;;;;5007802;28;20029;-68
2024/02/23 01:53:13;;;;;;;0.00;0.00;;;6.10;99.90;;;;;;4991203;28;20073;-69
2024/02/23 01:55:44;;;;;;;0.10;0.10;;;6.00;99.90;;;;;;4976585;28;20435;-68
2024/02/23 01:58:10;;;;;;;;;;;6.00;99.90;;;;;;5009853;28;20042;-68
2024/02/23 02:00:36;;;;;;;0.10;0.10;;;6.00;99.90;;;;;;4993549;28;19910;-69
2024/02/23 02:03:03;;;;;;;0.22;0.22;;;6.00;99.90;;;;;;5012040;28;20528;-69
2024/02/23 02:05:29;;;;;;;0.10;0.10;;;6.00;99.90;;;;;;5008466;28;20036;-68
2024/02/23 02:07:59;;;;;;;0.00;0.00;;;6.00;99.90;;;;;;5011445;28;20389;-68
2024/02/23 02:10:26;;;;;;;0.10;0.10;;;6.00;99.90;;;;;;4994839;28;20152;-68
2024/02/23 02:12:52;;;;;;;0.30;0.20;;;6.00;99.90;;;;;;5014069;28;20049;-68
2024/02/23 02:15:18;;;;;;;0.17;0.10;;;5.90;99.90;;;;;;5014876;28;20462;-68
2024/02/23 02:17:44;;;;;;;0.00;0.00;;;5.90;99.90;;;;;;5012717;28;20040;-68
2024/02/23 02:20:15;;;;;;;0.10;0.10;;;5.90;99.90;;;;;;5013254;28;20071;-68
2024/02/23 02:22:41;;;;;;;0.70;0.20;;;5.90;99.90;;;;;;5012669;28;20425;-69
2024/02/23 02:25:07;;;;;;;0.10;0.10;;;5.80;99.90;;;;;;5006853;28;20114;-68
2024/02/23 02:27:33;;;;;;;0.10;0.10;;;5.90;99.90;;;;;;5010905;28;20386;-68
2024/02/23 02:29:59;;;;;;;0.00;0.00;;;5.80;99.90;;;;;;4996941;28;20030;-68
2024/02/23 02:32:25;;;;;;;0.00;0.00;;;5.80;99.90;;;;;;5013224;28;20045;-68
2024/02/23 02:34:50;;;;;;;0.00;0.00;;;5.90;99.90;;;;;;5013284;28;20025;-68
2024/02/23 02:37:16;;;;;;;0.15;0.10;;;5.90;99.90;;;;;;5009840;28;20667;-68
2024/02/23 02:39:42;;;;;;;0.00;0.00;;;5.90;99.90;;;;;;5011158;28;20072;-68
2024/02/23 02:42:08;;;;;;;0.00;0.00;;;5.90;99.90;;;;;;5012905;28;20099;-68
2024/02/23 02:44:34;;;;;;;4.57;0.80;;;5.90;99.90;;;;;;5005855;28;20368;-68
2024/02/23 02:47:00;;;;;;;0.10;0.10;;;5.90;99.90;;;;;;5007439;28;20030;-68
2024/02/23 02:49:26;;;;;;;2.95;0.30;;;5.90;99.90;;;;;;4982996;28;20030;-69
2024/02/23 02:51:52;;;;;;;1.40;0.20;;;5.90;99.90;;;;;;5004792;28;20343;-68
2024/02/23 02:54:20;;;;;;;0.17;0.17;;;5.90;99.90;;;;;;5012613;28;20453;-69
2024/02/23 02:56:47;;;;;;;0.20;0.17;;;5.90;99.90;;;;;;5010740;28;20030;-67
2024/02/23 02:59:13;;;;;;;0.28;0.28;;;5.90;99.90;;;;;;4994000;28;20124;-67
2024/02/23 03:01:40;;;;;;;0.20;0.20;;;5.90;99.90;;;;;;5011936;28;20113;-67
2024/02/23 03:04:05;;;;;;;1.08;0.85;;;5.90;99.90;;;;;;5006034;28;20629;-68
2024/02/23 03:06:31;;;;;;;0.10;0.10;;;6.00;99.90;;;;;;5004378;28;20037;-67
2024/02/23 03:08:57;;;;;;;0.43;0.43;;;6.10;99.90;;;;;;5005488;28;20060;-67
2024/02/23 03:11:23;;;;;;;0.38;0.17;;;6.20;99.90;;;;;;5005459;28;20549;-68
2024/02/23 03:13:48;;;;;;;0.00;0.00;;;6.20;99.90;;;;;;5004227;28;20422;-67
2024/02/23 03:16:18;;;;;;;0.10;0.10;;;6.30;99.90;;;;;;5012760;28;20034;-67
2024/02/23 03:18:44;;;;;;;0.10;0.10;;;6.40;99.90;;;;;;5011827;28;20132;-68
2024/02/23 03:21:10;;;;;;;0.10;0.10;;;6.50;99.90;;;;;;5005595;28;20116;-68
2024/02/23 03:23:36;;;;;;;0.80;0.35;;;6.50;99.90;;;;;;4992785;28;20121;-68
2024/02/23 03:26:03;;;;;;;0.20;0.20;;;6.50;99.90;;;;;;5006407;28;20086;-68
2024/02/23 03:28:29;;;;;;;0.10;0.10;;;6.50;99.90;;;;;;5003172;28;20057;-68
2024/02/23 03:30:54;;;;;;;1.65;0.85;;;6.50;99.90;;;;;;5012755;28;20018;-68
2024/02/23 03:33:20;;;;;;;0.35;0.35;;;6.50;99.90;;;;;;5010588;28;20105;-68
2024/02/23 03:35:46;;;;;;;0.55;0.30;;;6.40;99.90;;;;;;5012124;28;20363;-68
2024/02/23 03:38:12;;;;;;;4.18;0.98;;;6.40;99.90;;;;;;5003470;28;20091;-68
2024/02/23 03:40:37;;;;;;;0.22;0.22;;;6.40;99.90;;;;;;4995557;28;20034;-68
2024/02/23 03:43:04;;;;;;;0.25;0.25;;;6.50;99.90;;;;;;5007101;28;20125;-68
2024/02/23 03:45:29;;;;;;;0.10;0.10;;;6.50;99.90;;;;;;4993379;28;20030;-68
2024/02/23 03:47:55;;;;;;;0.10;0.10;;;6.50;99.90;;;;;;5011421;28;20033;-68
2024/02/23 03:50:21;;;;;;;2.42;0.70;;;6.50;99.90;;;;;;5011296;28;20084;-68
2024/02/23 03:52:46;;;;;;;0.10;0.10;;;6.50;99.90;;;;;;5011413;28;20033;-68
2024/02/23 03:55:12;;;;;;;0.30;0.22;;;6.50;99.90;;;;;;5010790;28;20091;-68
2024/02/23 03:57:38;;;;;;;0.20;0.20;;;6.40;99.90;;;;;;5012584;28;20045;-68
2024/02/23 04:00:06;;;;;;;0.10;0.10;;;6.40;99.90;;;;;;5003026;28;20026;-68
2024/02/23 04:02:31;;;;;;;2.92;0.88;;;6.30;99.90;;;;;;5011539;28;20026;-68
2024/02/23 04:04:57;;;;;;;0.10;0.10;;;6.30;99.90;;;;;;4993474;28;20056;-68
2024/02/23 04:07:23;;;;;;;0.20;0.20;;;6.20;99.90;;;;;;5004992;28;20026;-69
2024/02/23 04:09:52;;;;;;;0.20;0.20;;;6.20;99.90;;;;;;5011387;28;20103;-68
2024/02/23 04:12:19;;;;;;;9.43;0.30;;;6.00;99.90;;;;;;5013075;28;20030;-69
2024/02/23 04:14:45;;;;;;;0.08;0.08;;;6.10;99.90;;;;;;5009301;28;20474;-69
2024/02/23 04:17:12;;;;;;;0.88;0.55;;;6.00;99.90;;;;;;5012671;28;20072;-68
2024/02/23 04:19:37;;;;;;;0.10;0.10;;;6.00;99.90;;;;;;5010297;28;20030;-69
2024/02/23 04:22:11;;;;;;;0.93;0.38;;;6.00;99.90;;;;;;5007136;28;20041;-69
2024/02/23 04:24:39;;;;;;;20.27;0.80;;;5.90;99.90;;;;;;5001611;28;20121;-68
2024/02/23 04:27:06;;;;;;;0.22;0.22;;;5.90;99.90;;;;;;5011518;28;20096;-68
2024/02/23 04:29:32;;;;;;;0.20;0.20;;;5.90;99.90;;;;;;5010968;28;20805;-68
2024/02/23 04:32:01;;;;;;;0.10;0.10;;;5.90;99.90;;;;;;4995601;28;20072;-68
2024/02/23 04:34:27;;;;;;;0.45;0.17;;;5.90;99.90;;;;;;5009545;28;20026;-68
2024/02/23 04:36:54;;;;;;;2.30;0.17;;;6.00;99.90;;;;;;5009300;28;20030;-69
2024/02/23 04:39:21;;;;;;;0.10;0.10;;;6.00;99.90;;;;;;5010535;28;20030;-69
2024/02/23 04:41:47;;;;;;;8.45;0.20;;;6.00;99.90;;;;;;5004207;28;20133;-68
2024/02/23 04:44:13;;;;;;;4.70;0.20;;;6.00;99.90;;;;;;4992589;28;20060;-68
2024/02/23 04:46:38;;;;;;;1.08;0.80;;;6.00;99.90;;;;;;5012390;28;20057;-68
2024/02/23 04:49:04;;;;;;;0.28;0.28;;;6.00;99.90;;;;;;5005489;28;20057;-69
2024/02/23 04:51:30;;;;;;;2.75;0.73;;;6.10;99.90;;;;;;5008788;28;20109;-69
2024/02/23 04:53:56;;;;;;;4.25;0.45;;;6.00;99.90;;;;;;4997197;28;20042;-69
2024/02/23 04:56:21;;;;;;;1.92;1.05;;;6.00;99.90;;;;;;5000731;28;20038;-69
2024/02/23 04:58:47;;;;;;;0.35;0.30;;;5.90;99.90;;;;;;5001835;28;20080;-69
2024/02/23 05:01:13;;;;;;;0.30;0.30;;;5.90;99.90;;;;;;5002581;28;20036;-69
2024/02/23 05:03:39;;;;;;;5.68;0.50;;;5.90;99.90;;;;;;5009039;28;20033;-69
2024/02/23 05:06:05;;;;;;;2.20;0.88;;;6.00;99.90;;;;;;5003843;28;20022;-68
2024/02/23 05:08:31;;;;;;;0.10;0.10;;;6.00;99.90;;;;;;5000667;28;20079;-67
2024/02/23 05:10:57;;;;;;;3.95;0.28;;;6.10;99.90;;;;;;5011864;28;20037;-68
2024/02/23 05:13:24;;;;;;;2.10;0.93;;;6.20;99.90;;;;;;5008800;28;20030;-67
2024/02/23 05:15:50;;;;;;;0.45;0.38;;;6.20;99.90;;;;;;5010630;28;20021;-67
2024/02/23 05:18:16;;;;;;;2.63;0.68;;;6.20;99.90;;;;;;5001200;28;20042;-68
2024/02/23 05:20:41;;;;;;;0.10;0.10;;;6.20;99.90;;;;;;5007038;28;21361;-67
2024/02/23 05:23:07;;;;;;;1.55;0.35;;;6.20;99.90;;;;;;4993802;28;20049;-67
2024/02/23 05:25:34;;;;;;;4.65;0.28;;;6.10;99.90;;;;;;5002265;28;20023;-67
2024/02/23 05:27:59;;;;;;;0.10;0.10;;;6.10;99.90;;;;;;5005612;28;20035;-67
2024/02/23 05:30:27;;;;;;;0.10;0.10;;;6.10;99.90;;;;;;5006452;28;20517;-67
2024/02/23 05:32:53;;;;;;;0.32;0.32;;;6.10;99.90;;;;;;5011552;28;20030;-67
2024/02/23 05:35:18;;;;;;;10.35;2.53;;;6.10;99.90;;;;;;5009302;28;20394;-68
2024/02/23 05:37:44;;;;;;;0.47;0.47;;;6.20;99.90;;;;;;5006228;28;20034;-67
2024/02/23 05:40:10;;;;;;;0.10;0.10;;;6.20;99.90;;;;;;5013250;28;20034;-68
2024/02/23 05:42:37;;;;;;;1.30;0.43;;;6.30;99.90;;;;;;5012566;28;20042;-68
2024/02/23 05:45:04;;;;;;;0.80;0.80;;;6.40;99.90;;;;;;4997855;28;20478;-68
2024/02/23 05:47:31;;;;;;;0.40;0.32;;;6.50;99.90;;;;;;5012431;28;20048;-69
2024/02/23 05:49:57;;;;;;;0.30;0.30;;;6.40;99.90;;;;;;5015073;28;20445;-68
2024/02/23 05:52:22;;;;;;;0.22;0.20;;;6.50;99.90;;;;;;5012723;28;20041;-68
2024/02/23 05:54:48;;;;;;;0.35;0.32;;;6.40;99.90;;;;;;5013823;28;20631;-68
2024/02/23 05:57:14;;;;;;;3.10;0.80;;;6.40;99.90;;;;;;5012837;28;20041;-68
2024/02/23 05:59:40;;;;;;;0.00;0.00;;;6.40;99.90;;;;;;5015104;28;20025;-69
2024/02/23 06:02:05;;;;;;;0.45;0.40;;;6.40;99.90;;;;;;5021336;28;20113;-67
2024/02/23 06:04:31;;;;;;;4.15;1.52;;;6.40;99.90;;;;;;5013259;28;20037;-68
2024/02/23 06:06:57;;;;;;;0.60;0.30;;;6.50;99.90;;;;;;5017425;28;20482;-69
2024/02/23 06:09:23;;;;;;;2.67;0.30;;;6.50;99.90;;;;;;5019030;28;20053;-69
2024/02/23 06:11:49;;;;;;;0.93;0.50;;;6.50;99.90;;;;;;5005014;28;20381;-69
2024/02/23 06:14:14;;;;;;;0.10;0.10;;;6.50;99.90;;;;;;5016331;28;20112;-69
2024/02/23 06:16:40;;;;;;;0.10;0.10;;;6.50;99.90;;;;;;5022230;28;20029;-69
2024/02/23 06:19:06;;;;;;;0.43;0.43;;;6.50;99.90;;;;;;5017504;28;20034;-69
2024/02/23 06:21:32;;;;;;;0.63;0.30;;;6.50;99.90;;;;;;5010950;28;20402;-69
2024/02/23 06:23:58;;;;;;;0.77;0.47;;;6.50;99.90;;;;;;5006891;28;20022;-68
2024/02/23 06:26:24;;;;;;;0.25;0.25;;;6.50;99.90;;;;;;5006382;28;20040;-68
2024/02/23 06:28:50;;;;;;;3.97;1.35;;;6.50;99.90;;;;;;5012068;28;20038;-68
2024/02/23 06:31:16;;;;;;;0.20;0.20;;;6.50;99.90;;;;;;5022743;28;20393;-67
2024/02/23 06:33:42;;;;;;;3.10;0.30;;;6.50;99.90;;;;;;5013023;28;20120;-68
2024/02/23 06:36:09;;;;;;;0.10;0.10;;;6.50;99.90;;;;;;5005928;28;20453;-68
2024/02/23 06:38:35;;;;;;;3.90;0.65;;;6.50;99.90;;;;;;5013524;28;20040;-68
2024/02/23 06:41:00;;;;;;;0.00;0.00;;;6.50;99.90;;;;;;5012729;28;20034;-67
2024/02/23 06:43:26;;;;;;;5.07;0.63;;;6.40;99.90;;;;;;5012953;28;20363;-68
2024/02/23 06:45:52;;;;;;;0.80;0.80;;;6.50;99.90;;;;;;5008492;28;20080;-68
2024/02/23 06:48:18;;;;;;;0.47;0.30;;;6.50;99.90;;;;;;5012698;28;20036;-67
2024/02/23 06:50:44;;;;;;;8.05;0.50;;;6.50;99.90;;;;;;5008982;28;20434;-67
2024/02/23 06:53:09;;;;;;;0.85;0.32;;;6.50;99.90;;;;;;5008420;28;20046;-73
2024/02/23 06:55:35;;;;;;;1.38;0.45;;;6.50;99.90;;;;;;5010671;28;20035;-72
2024/02/23 06:58:04;;;;;;;0.80;0.52;;;6.50;99.90;;;;;;5013120;28;20026;-67
2024/02/23 07:00:30;;;;;;;0.30;0.30;;;6.50;99.90;;;;;;5011506;28;20018;-71
2024/02/23 07:02:58;;;;;;;0.45;0.43;;;6.50;99.90;;;;;;5012991;28;20113;-66
2024/02/23 07:05:25;;;;;;;2.88;0.75;;;6.50;99.90;;;;;;5006582;28;20041;-66
2024/02/23 07:07:51;;;;;;;0.20;0.20;;;6.40;99.90;;;;;;5015672;28;20034;-67
2024/02/23 07:10:18;;;;;;;5.65;0.70;;;6.30;99.90;;;;;;5004921;28;20034;-66
2024/02/23 07:12:44;;;;;;;4.47;0.57;;;6.30;99.90;;;;;;5012682;28;20033;-66
2024/02/23 07:15:10;;;;;;;0.10;0.10;;;6.30;99.90;;;;;;5011667;28;20113;-51
2024/02/23 07:17:36;;;;;;;0.57;0.57;;;6.20;99.90;;;;;;5012440;28;20030;-52
2024/02/23 07:20:07;;;;;;;0.75;0.20;;;6.20;99.90;;;;;;5013842;28;20033;-52
2024/02/23 07:22:33;;;;;;;7.28;0.45;;;6.10;99.90;;;;;;5013567;28;20045;-49
2024/02/23 07:25:01;;;;;;;0.95;0.65;;;6.20;99.90;;;;;;5013810;28;20087;-51
2024/02/23 07:27:27;;;;;;;0.30;0.30;;;6.00;99.90;;;;;;5011741;28;20028;-49
2024/02/23 07:29:52;;;;;;;4.47;0.82;;;6.00;99.90;;;;;;5013881;28;20108;-66
2024/02/23 07:32:18;;;;;;;0.45;0.38;;;6.10;99.90;;;;;;5013180;28;20033;-66
2024/02/23 07:37:21;;;;;;;2.17;0.52;;;6.00;99.90;;;;;;4946143;29;20059;-66
2024/02/23 07:39:47;;;;;;;0.10;0.10;;;6.10;99.90;;;;;;4961926;28;20031;-66
2024/02/23 07:42:14;;;;;;;2.60;0.50;;;6.00;99.90;;;;;;4951102;28;20423;-66
2024/02/23 07:44:40;;;;;;;0.32;0.20;;;6.00;99.90;;;;;;4944786;29;20059;-66
2024/02/23 07:47:06;;;;;;;0.20;0.20;;;6.00;99.90;;;;;;4940850;29;20039;-66
2024/02/23 07:49:31;;;;;;;0.43;0.25;;;6.10;99.90;;;;;;4950728;28;20448;-66
2024/02/23 07:51:57;;;;;;;0.98;0.10;;;6.10;99.90;;;;;;4945195;29;20051;-67
2024/02/23 07:54:23;;;;;;;0.98;0.20;;;6.10;99.90;;;;;;4953550;28;20110;-66
2024/02/23 07:56:49;;;;;;;0.35;0.35;;;6.20;99.90;;;;;;4947323;28;20031;-66
2024/02/23 07:59:14;;;;;;;1.35;0.95;;;6.40;99.90;;;;;;4952401;28;20082;-66
2024/02/23 08:01:40;;;;;;;0.80;0.45;;;6.50;99.90;;;;;;4939578;29;20380;-66
2024/02/23 08:04:06;;;;;;;5.28;0.40;;;6.70;99.90;;;;;;4948623;28;20035;-66
2024/02/23 08:06:32;;;;;;;0.98;0.20;;;6.80;99.90;;;;;;4930602;29;20043;-66
2024/02/23 08:08:58;;;;;;;1.05;0.25;;;6.90;99.90;;;;;;4934765;29;20031;-66
2024/02/23 08:11:24;;;;;;;0.70;0.20;;;7.00;99.90;;;;;;4931189;29;20058;-66
2024/02/23 08:13:49;;;;;;;0.30;0.30;;;7.10;99.90;;;;;;4926103;29;20152;-67
2024/02/23 08:16:18;;;;;;;0.80;0.38;;;7.10;99.90;;;;;;4932194;29;20031;-66
2024/02/23 08:18:43;;;;;;;3.80;1.55;;;7.10;99.90;;;;;;4931171;29;20597;-66
2024/02/23 08:21:10;;;;;;;3.20;0.75;;;7.00;99.90;;;;;;4932529;29;20114;-66
2024/02/23 08:23:36;;;;;;;0.38;0.35;;;7.00;99.90;;;;;;4934490;29;20074;-66
2024/02/23 08:26:02;;;;;;;3.95;1.40;;;7.00;99.90;;;;;;4946117;28;20464;-67
2024/02/23 08:28:28;;;;;;;2.38;0.50;;;7.00;99.90;;;;;;4935578;29;20115;-66
2024/02/23 08:30:54;;;;;;;5.82;0.65;;;7.00;99.90;;;;;;4932438;29;20438;-67
2024/02/23 08:33:20;;;;;;;1.42;0.30;;;7.10;99.90;;;;;;4934489;29;20040;-66
2024/02/23 08:35:48;;;;;;;0.63;0.20;;;7.20;99.90;;;;;;4930915;29;20653;-67
2024/02/23 08:38:14;;;;;;;15.80;0.95;;;7.30;99.90;;;;;;4934811;29;20027;-67
2024/02/23 08:40:40;;;;;;;8.63;0.80;;;7.30;99.90;;;;;;4929599;29;20037;-67
2024/02/23 08:43:05;;;;;;;0.10;0.10;;;7.30;99.90;;;;;;4934781;29;20035;-67
2024/02/23 08:45:31;;;;;;;0.50;0.43;;;7.40;99.90;;;;;;4932689;29;20031;-67
2024/02/23 08:47:57;;;;;;;1.75;0.63;;;7.30;99.90;;;;;;4936887;28;20046;-67
2024/02/23 08:50:23;;;;;;;0.80;0.38;;;7.30;99.90;;;;;;4930949;29;20040;-67
2024/02/23 08:52:49;;;;;;;0.10;0.10;;;7.50;99.90;;;;;;4934719;29;20041;-67
2024/02/23 08:55:15;;;;;;;2.05;0.35;;;7.40;99.90;;;;;;4932758;29;20413;-67
2024/02/23 08:57:41;;;;;;;0.57;0.57;;;7.40;99.90;;;;;;4933854;29;20063;-67
2024/02/23 09:00:07;;;;;;;1.45;0.30;;;7.50;99.90;;;;;;4931722;29;20050;-66
2024/02/23 09:02:35;;;;;;;5.05;1.55;;;7.50;99.90;;;;;;4932763;29;20023;-66
2024/02/23 09:05:01;;;;;;;0.28;0.28;;;7.60;99.90;;;;;;4934425;29;20032;-66
2024/02/23 09:07:27;;;;;;;2.63;0.20;;;7.70;99.90;;;;;;4934900;29;20568;-67
2024/02/23 09:09:54;;;;;;;1.08;0.90;;;7.70;99.90;;;;;;4937825;29;20031;-67
2024/02/23 09:12:19;;;;;;;2.03;0.47;;;7.80;99.90;;;;;;4931017;29;20028;-67
2024/02/23 09:14:45;;;;;;;1.90;0.98;;;7.80;99.90;;;;;;4934090;29;20035;-67
2024/02/23 09:17:12;;;;;;;0.45;0.20;;;7.90;99.90;;;;;;4931249;29;20082;-67
2024/02/23 09:19:38;;;;;;;7.05;0.68;;;8.00;99.90;;;;;;4934067;29;20040;-67
2024/02/23 09:22:05;;;;;;;0.80;0.55;;;7.90;99.90;;;;;;4929083;29;20083;-67
2024/02/23 09:24:31;;;;;;;0.10;0.10;;;7.90;99.90;;;;;;4934110;28;20027;-66
2024/02/23 09:26:56;;;;;;;4.28;0.20;;;7.90;99.90;;;;;;4935272;29;20604;-66
2024/02/23 09:29:22;;;;;;;0.20;0.17;;;7.90;99.90;;;;;;4934792;29;20381;-66
2024/02/23 09:31:48;;;;;;;3.33;0.68;;;7.90;99.90;;;;;;4930021;29;20035;-66
2024/02/23 09:34:14;;;;;;;0.10;0.10;;;8.00;99.90;;;;;;4934228;29;20416;-67
2024/02/23 09:36:39;;;;;;;13.23;1.55;;;8.00;99.90;;;;;;4930320;29;20039;-66
2024/02/23 09:39:05;;;;;;;4.47;0.40;;;8.10;99.90;;;;;;4934059;29;20468;-66
2024/02/23 09:41:31;;;;;;;2.42;0.50;;;8.20;99.90;;;;;;4929074;29;20452;-67
2024/02/23 09:44:02;;;;;;;3.05;0.60;;;8.20;99.90;;;;;;4933910;29;20395;-67
2024/02/23 09:46:29;;;;;;;16.50;0.75;;;8.30;99.90;;;;;;4929414;29;20120;-66
2024/02/23 09:48:56;;;;;;;9.35;1.10;;;8.50;99.90;;;;;;4933191;29;20460;-67
2024/02/23 09:51:25;;;;;;;1.60;0.32;;;8.70;99.90;;;;;;4929355;29;20032;-67
2024/02/23 09:53:52;;;;;;;2.08;0.20;;;8.90;99.90;;;;;;4932905;29;20365;-65
2024/02/23 09:56:19;;;;;;;3.13;0.70;;;9.00;99.90;;;;;;4929113;29;20040;-66
2024/02/23 09:58:49;;;;;;;0.57;0.30;;;9.00;99.90;;;;;;4948082;29;20378;-66
2024/02/23 10:01:28;;;;;;;6.28;1.00;;;9.00;99.90;;;;;;4928761;29;20162;-66
2024/02/23 10:03:58;;;;;;;0.00;0.00;;;9.10;99.90;;;;;;4925452;29;20074;-66
2024/02/23 10:06:28;;;;;;;3.75;0.63;;;9.00;99.90;;;;;;4944860;29;20171;-66
2024/02/23 10:08:53;;;;;;;3.10;0.65;;;8.90;99.90;;;;;;4917134;29;20027;-66
2024/02/23 10:11:24;;;;;;;2.83;0.50;;;8.60;99.90;;;;;;4930321;29;20051;-66
2024/02/23 10:13:51;;;;;;;0.32;0.32;;;8.60;99.90;;;;;;4934027;29;20118;-66
2024/02/23 10:16:21;;;;;;;0.20;0.20;;;8.70;99.90;;;;;;4928726;29;20031;-67
2024/02/23 10:18:48;;;;;;;0.30;0.22;;;8.90;99.90;;;;;;4932519;29;20111;-67
2024/02/23 10:21:18;;;;;;;0.28;0.20;;;9.20;99.90;;;;;;4928410;29;20050;-67
2024/02/23 10:23:50;;;;;;;1.95;0.40;;;9.20;99.90;;;;;;4936844;29;20151;-67
2024/02/23 10:26:20;;;;;;;0.15;0.05;;;9.00;99.90;;;;;;4933824;29;20035;-67
2024/02/23 10:28:50;;;;;;;0.00;0.00;;;9.20;99.90;;;;;;4938034;29;20027;-67
2024/02/23 10:31:17;;;;;;;1.23;0.70;;;9.70;99.90;;;;;;4934762;29;20066;-67
2024/02/23 10:33:44;;;;;;;10.05;0.38;;;9.70;99.90;;;;;;4952525;29;20488;-67
2024/02/23 10:36:11;;;;;;;2.25;0.57;;;9.80;99.90;;;;;;4934148;29;20507;-67
2024/02/23 10:38:41;;;;;;;1.05;0.68;;;10.20;99.90;;;;;;4937247;29;20042;-65
2024/02/23 10:41:13;;;;;;;2.65;0.30;;;10.30;99.90;;;;;;4939292;29;20067;-65
2024/02/23 10:43:48;;;;;;;0.10;0.10;;;10.20;99.90;;;;;;4941915;29;20038;-66
2024/02/23 10:46:15;;;;;;;0.00;0.00;;;10.40;99.90;;;;;;4933262;29;20039;-65
2024/02/23 10:48:45;;;;;;;3.20;0.35;;;10.60;99.10;;;;;;4936906;29;20102;-66
2024/02/23 10:51:14;;;;;;;2.15;0.57;;;11.00;98.90;;;;;;4931772;29;20037;-66
2024/02/23 10:53:40;;;;;;;1.42;0.77;;;11.10;98.30;;;;;;4935455;29;20024;-66
2024/02/23 10:56:07;;;;;;;2.15;0.77;;;10.40;99.90;;;;;;4931739;29;20086;-66
2024/02/23 10:58:33;;;;;;;19.45;7.20;;;10.50;99.50;;;;;;4937079;29;20399;-66
2024/02/23 11:01:07;;;;;;;3.25;1.05;;;10.30;99.90;;;;;;4947530;29;20032;-66
2024/02/23 11:03:35;;;;;;;4.78;1.42;;;10.60;99.30;;;;;;4935548;29;20035;-66
2024/02/23 11:06:01;;;;;;;2.17;0.93;;;10.20;99.70;;;;;;4931267;29;20042;-66
2024/02/23 11:08:29;;;;;;;7.32;0.80;;;10.20;99.90;;;;;;4936585;29;20027;-66
2024/02/23 11:10:55;;;;;;;1.60;0.38;;;10.80;99.40;;;;;;4932108;29;20028;-66
2024/02/23 11:13:34;;;;;;;3.17;0.82;;;11.00;98.90;;;;;;4938579;29;20032;-66
2024/02/23 11:16:10;;;;;;;2.78;0.68;;;11.50;98.80;;;;;;4924540;29;20047;-66
2024/02/23 11:18:39;;;;;;;0.45;0.40;;;11.40;97.20;;;;;;4936283;29;20054;-66
2024/02/23 11:21:09;;;;;;;1.08;0.32;;;10.90;98.10;;;;;;4932667;29;20126;-66
2024/02/23 11:23:51;;;;;;;2.85;0.47;;;10.50;99.00;;;;;;4934911;29;20024;-66
2024/02/23 11:26:17;;;;;;;1.85;0.45;;;10.40;99.20;;;;;;4930857;29;20536;-66
2024/02/23 11:28:53;;;;;;;3.83;0.30;;;10.30;99.10;;;;;;4935001;29;20039;-66
2024/02/23 11:31:21;;;;;;;0.38;0.38;;;10.10;99.90;;;;;;4936419;29;20038;-66
2024/02/23 11:33:53;;;;;;;2.10;0.65;;;10.50;99.80;;;;;;4934851;28;20118;-66
2024/02/23 11:36:35;;;;;;;1.92;0.77;;;10.90;99.90;;;;;;4930433;29;20032;-67
2024/02/23 11:39:02;;;;;;;2.33;0.50;;;11.40;97.60;;;;;;4929187;29;20036;-67
2024/02/23 11:41:28;;;;;;;0.15;0.13;;;10.60;98.70;;;;;;4931874;29;20518;-67
2024/02/23 11:43:56;;;;;;;3.40;0.90;;;10.60;98.50;;;;;;4941105;29;20538;-66
2024/02/23 11:46:22;;;;;;;6.88;0.50;;;10.40;99.90;;;;;;4930336;29;20043;-66
2024/02/23 11:48:55;;;;;;;6.38;0.68;;;10.50;99.90;;;;;;4934230;29;20059;-66
2024/02/23 11:51:27;;;;;;;3.63;0.35;;;10.80;99.40;;;;;;4945308;29;20123;-66
2024/02/23 11:53:53;;;;;;;1.10;0.40;;;10.80;99.00;;;;;;4932666;29;20035;-66
2024/02/23 11:56:19;;;;;;;13.27;0.60;;;10.60;98.20;;;;;;4934729;29;20051;-66
2024/02/23 11:58:45;;;;;;;3.70;0.50;;;10.50;99.30;;;;;;4948863;29;20024;-66
2024/02/23 12:01:11;;;;;;;0.90;0.57;;;10.20;99.50;;;;;;4930592;29;20059;-66
2024/02/23 12:03:39;;;;;;;7.03;0.20;;;10.00;99.60;;;;;;4947660;29;20485;-66
2024/02/23 12:06:06;;;;;;;0.20;0.10;;;10.00;99.80;;;;;;4931718;29;20032;-66
2024/02/23 12:08:37;;;;;;;3.75;1.13;;;10.30;99.90;;;;;;4946696;29;20480;-66
2024/02/23 12:11:05;;;;;;;0.30;0.20;;;10.30;99.80;;;;;;4930542;29;20036;-66
2024/02/23 12:13:32;;;;;;;3.92;1.05;;;10.10;99.90;;;;;;4946583;29;20058;-66
2024/02/23 12:15:58;;;;;;;5.50;0.60;;;10.10;99.90;;;;;;4931803;29;20028;-66
2024/02/23 12:18:26;;;;;;;3.53;0.50;;;10.10;99.90;;;;;;4931575;29;20065;-66
2024/02/23 12:20:52;;;;;;;9.98;0.43;;;10.10;99.90;;;;;;4931824;29;20186;-66
2024/02/23 12:23:18;;;;;;;1.02;0.93;;;10.20;99.90;;;;;;4930532;29;20593;-66
2024/02/23 12:25:56;;;;;;;0.60;0.20;;;10.10;99.90;;;;;;4933156;29;20034;-66
2024/02/23 12:28:23;;;;;;;1.85;0.60;;;10.00;99.90;;;;;;4929744;29;20695;-66
2024/02/23 12:31:06;;;;;;;0.50;0.20;;;9.90;99.90;;;;;;4932492;29;20035;-66
2024/02/23 12:33:37;;;;;;;7.55;1.50;;;10.00;99.90;;;;;;4935932;29;20032;-66
2024/02/23 12:36:04;;;;;;;12.32;1.08;;;9.30;99.90;;;;;;4945747;29;20044;-67
2024/02/23 12:38:31;;;;;;;0.28;0.22;;;8.60;99.90;;;;;;4931966;29;20042;-67
2024/02/23 12:40:57;;;;;;;0.10;0.10;;;8.40;99.90;;;;;;4931522;29;20040;-67
2024/02/23 12:43:26;;;;;;;0.88;0.10;;;9.80;99.90;;;;;;4930558;29;20085;-67
2024/02/23 12:45:55;;;;;;;7.00;1.33;;;11.90;99.90;;;;;;4924210;29;20023;-67
2024/02/23 12:48:21;;;;;;;2.80;0.30;;;13.30;99.20;;;;;;4945280;29;20039;-67
2024/02/23 12:50:49;;;;;;;1.08;0.20;;;12.70;99.90;;;;;;4932628;29;20110;-67
2024/02/23 12:53:38;;;;;;;3.72;0.40;;;13.70;98.50;;;;;;4928120;29;20035;-67
2024/02/23 12:56:07;;;;;;;0.35;0.13;;;14.60;93.40;;;;;;4930609;29;20162;-67